createdAt,value
2018-11-02T00:01:39.102Z,9.59
2018-11-02T00:04:14.693Z,9.59
2018-11-02T00:06:49.873Z,9.91
2018-11-02T00:09:25.143Z,10.09
2018-11-02T00:12:00.489Z,10.23
2018-11-02T00:14:35.944Z,10.31
2018-11-02T00:17:11.369Z,10.14
2018-11-02T00:19:46.720Z,10.27
2018-11-02T00:22:22.018Z,10.32
2018-11-02T00:24:57.281Z,10.49
2018-11-02T00:27:32.503Z,10.51
2018-11-02T00:30:07.911Z,10.35
2018-11-02T00:32:43.184Z,10.14
2018-11-02T00:35:18.543Z,9.86
2018-11-02T00:37:54.074Z,9.92
2018-11-02T00:40:29.561Z,9.77
2018-11-02T00:43:05.299Z,9.87
2018-11-02T00:45:40.843Z,10.00
2018-11-02T00:48:16.108Z,10.13
2018-11-02T00:50:51.444Z,10.32
2018-11-02T00:53:27.158Z,10.34
2018-11-02T00:56:02.988Z,10.24
2018-11-02T00:58:38.512Z,10.06
2018-11-02T01:01:14.576Z,10.17
2018-11-02T01:03:49.733Z,10.36
2018-11-02T01:06:25.098Z,10.51
2018-11-02T01:09:00.536Z,10.55
2018-11-02T01:11:35.832Z,10.65
2018-11-02T01:14:11.136Z,10.73
2018-11-02T01:16:46.782Z,10.69
2018-11-02T01:19:25.454Z,10.80
2018-11-02T01:22:01.457Z,10.70
2018-11-02T01:24:36.620Z,10.69
2018-11-02T01:27:11.859Z,10.77
2018-11-02T01:29:47.125Z,10.73
2018-11-02T01:32:22.696Z,10.83
2018-11-02T01:35:03.410Z,10.84
2018-11-02T01:37:39.313Z,10.58
2018-11-02T01:40:14.656Z,10.17
2018-11-02T01:42:53.276Z,10.04
2018-11-02T01:45:28.651Z,9.93
2018-11-02T01:48:04.828Z,9.85
2018-11-02T01:50:40.336Z,10.19
2018-11-02T01:53:15.773Z,10.25
2018-11-02T01:55:51.099Z,10.28
2018-11-02T01:58:26.529Z,10.29
2018-11-02T02:01:01.852Z,10.34
2018-11-02T02:03:37.526Z,10.28
2018-11-02T02:06:13.002Z,10.18
2018-11-02T02:08:48.304Z,10.09
2018-11-02T02:11:23.630Z,10.26
2018-11-02T02:13:59.495Z,10.27
2018-11-02T02:16:34.746Z,10.00
2018-11-02T02:19:10.163Z,9.87
2018-11-02T02:21:45.592Z,9.84
2018-11-02T02:24:21.604Z,9.66
2018-11-02T02:26:57.054Z,9.80
2018-11-02T02:29:32.390Z,9.98
2018-11-02T02:32:08.901Z,10.00
2018-11-02T02:34:44.200Z,9.94
2018-11-02T02:37:19.626Z,10.02
2018-11-02T02:39:56.090Z,10.06
2018-11-02T02:42:31.686Z,9.81
2018-11-02T02:45:07.658Z,9.86
2018-11-02T02:47:43.399Z,10.03
2018-11-02T02:50:18.658Z,10.16
2018-11-02T02:52:54.254Z,10.19
2018-11-02T02:55:30.361Z,10.28
2018-11-02T02:58:05.978Z,10.37
2018-11-02T03:00:41.434Z,10.43
2018-11-02T03:03:16.991Z,10.32
2018-11-02T03:05:52.461Z,10.37
2018-11-02T03:08:28.020Z,10.49
2018-11-02T03:11:03.811Z,10.21
2018-11-02T03:13:39.160Z,9.93
2018-11-02T03:16:14.508Z,9.73
2018-11-02T03:18:49.740Z,9.68
2018-11-02T03:21:25.505Z,9.74
2018-11-02T03:24:00.703Z,9.46
2018-11-02T03:26:35.997Z,9.20
2018-11-02T03:29:11.589Z,9.21
2018-11-02T03:31:47.998Z,9.19
2018-11-02T03:34:23.436Z,9.50
2018-11-02T03:36:59.554Z,9.71
2018-11-02T03:39:35.004Z,9.64
2018-11-02T03:42:10.557Z,9.44
2018-11-02T03:44:45.840Z,9.50
2018-11-02T03:47:21.276Z,9.62
2018-11-02T03:49:56.635Z,9.69
2018-11-02T03:52:32.082Z,9.69
2018-11-02T03:55:08.119Z,9.66
2018-11-02T03:57:44.033Z,9.73
2018-11-02T04:00:20.164Z,9.73
2018-11-02T04:02:55.460Z,9.94
2018-11-02T04:05:30.855Z,9.92
2018-11-02T04:08:06.449Z,9.93
2018-11-02T04:10:42.228Z,10.01
2018-11-02T04:13:17.569Z,9.83
2018-11-02T04:15:52.938Z,9.65
2018-11-02T04:18:28.130Z,9.58
2018-11-02T04:21:03.240Z,9.68
2018-11-02T04:23:38.658Z,9.58
2018-11-02T04:26:14.376Z,9.50
2018-11-02T04:28:50.139Z,9.47
2018-11-02T04:31:25.420Z,9.73
2018-11-02T04:34:01.195Z,9.85
2018-11-02T04:36:36.411Z,9.93
2018-11-02T04:39:14.277Z,10.05
2018-11-02T04:41:49.745Z,10.17
2018-11-02T04:44:26.099Z,10.30
2018-11-02T04:47:01.027Z,10.37
2018-11-02T04:49:36.056Z,10.25
2018-11-02T04:52:10.895Z,10.08
2018-11-02T04:54:45.789Z,9.86
2018-11-02T04:57:21.237Z,9.78
2018-11-02T04:59:56.270Z,9.37
2018-11-02T05:02:31.217Z,9.19
2018-11-02T05:05:06.315Z,9.38
2018-11-02T05:07:41.351Z,9.48
2018-11-02T05:10:16.450Z,9.47
2018-11-02T05:12:51.237Z,9.48
2018-11-02T05:15:26.060Z,9.49
2018-11-02T05:18:00.930Z,9.66
2018-11-02T05:20:36.022Z,9.86
2018-11-02T05:23:11.033Z,9.80
2018-11-02T05:25:46.286Z,9.86
2018-11-02T05:28:21.372Z,9.63
2018-11-02T05:30:56.455Z,9.60
2018-11-02T05:33:31.402Z,9.53
2018-11-02T05:36:06.497Z,9.58
2018-11-02T05:38:41.897Z,9.91
2018-11-02T05:41:16.913Z,10.05
2018-11-02T05:43:52.048Z,10.32
2018-11-02T05:46:27.062Z,10.60
2018-11-02T05:49:02.631Z,10.71
2018-11-02T05:51:37.704Z,10.76
2018-11-02T05:54:12.718Z,10.87
2018-11-02T05:56:47.978Z,10.72
2018-11-02T05:59:23.045Z,10.72
2018-11-02T06:01:57.949Z,10.83
2018-11-02T06:04:32.929Z,11.16
2018-11-02T06:07:07.739Z,11.66
2018-11-02T06:09:42.655Z,12.04
2018-11-02T06:12:17.577Z,12.27
2018-11-02T06:14:52.414Z,12.60
2018-11-02T06:17:27.468Z,12.63
2018-11-02T06:20:02.373Z,12.81
2018-11-02T06:22:37.385Z,12.86
2018-11-02T06:25:12.417Z,12.92
2018-11-02T06:27:47.464Z,13.07
2018-11-02T06:30:22.419Z,13.32
2018-11-02T06:32:57.672Z,13.52
2018-11-02T06:35:32.691Z,13.52
2018-11-02T06:38:07.709Z,13.62
2018-11-02T06:40:42.648Z,13.79
2018-11-02T06:43:17.709Z,13.94
2018-11-02T06:45:52.622Z,14.06
2018-11-02T06:48:27.632Z,14.16
2018-11-02T06:51:02.707Z,14.20
2018-11-02T06:53:38.210Z,14.39
2018-11-02T06:56:13.502Z,14.51
2018-11-02T06:58:48.366Z,14.67
2018-11-02T07:01:23.385Z,14.81
2018-11-02T07:03:58.431Z,15.02
2018-11-02T07:06:33.232Z,15.17
2018-11-02T07:09:09.277Z,15.16
2018-11-02T07:11:44.227Z,15.29
2018-11-02T07:14:19.262Z,15.48
2018-11-02T07:16:54.242Z,15.67
2018-11-02T07:19:29.063Z,15.76
2018-11-02T07:22:04.107Z,15.68
2018-11-02T07:24:39.106Z,15.66
2018-11-02T07:27:14.099Z,15.76
2018-11-02T07:29:49.103Z,15.83
2018-11-02T07:32:24.135Z,16.06
2018-11-02T07:34:59.094Z,16.12
2018-11-02T07:37:33.961Z,16.21
2018-11-02T07:40:10.253Z,16.50
2018-11-02T07:42:45.093Z,16.55
2018-11-02T07:45:20.087Z,16.85
2018-11-02T07:47:55.193Z,16.71
2018-11-02T07:50:30.145Z,16.97
2018-11-02T07:53:05.205Z,17.02
2018-11-02T07:55:40.448Z,16.80
2018-11-02T07:58:15.480Z,16.78
2018-11-02T08:00:50.525Z,16.89
2018-11-02T08:03:25.522Z,16.98
2018-11-02T08:06:00.781Z,17.05
2018-11-02T08:08:35.757Z,17.09
2018-11-02T08:11:10.737Z,17.18
2018-11-02T08:13:45.955Z,17.48
2018-11-02T08:16:20.753Z,17.59
2018-11-02T08:18:55.805Z,17.60
2018-11-02T08:21:30.949Z,17.80
2018-11-02T08:24:05.989Z,18.05
2018-11-02T08:26:40.925Z,18.21
2018-11-02T08:29:15.931Z,18.34
2018-11-02T08:31:50.922Z,18.51
2018-11-02T08:34:26.059Z,18.54
2018-11-02T08:37:01.136Z,18.30
2018-11-02T08:39:41.341Z,18.49
2018-11-02T08:42:16.367Z,18.75
2018-11-02T08:44:51.300Z,18.79
2018-11-02T08:47:26.338Z,18.89
2018-11-02T08:50:01.327Z,19.07
2018-11-02T08:52:36.384Z,19.28
2018-11-02T08:55:11.240Z,19.64
2018-11-02T08:57:46.280Z,19.57
2018-11-02T09:00:21.341Z,19.77
2018-11-02T09:02:56.853Z,19.93
2018-11-02T09:05:31.930Z,20.15
2018-11-02T09:08:06.867Z,20.23
2018-11-02T09:10:41.763Z,20.36
2018-11-02T09:13:16.785Z,20.44
2018-11-02T09:15:51.716Z,20.61
2018-11-02T09:18:26.837Z,20.76
2018-11-02T09:21:01.878Z,21.03
2018-11-02T09:23:36.894Z,21.21
2018-11-02T09:26:12.120Z,21.25
2018-11-02T09:28:47.285Z,21.44
2018-11-02T09:31:22.358Z,21.61
2018-11-02T09:33:57.340Z,21.54
2018-11-02T09:36:32.584Z,21.71
2018-11-02T09:39:08.663Z,21.85
2018-11-02T09:41:43.615Z,21.92
2018-11-02T09:44:18.732Z,22.06
2018-11-02T09:46:53.831Z,21.83
2018-11-02T09:49:28.838Z,21.65
2018-11-02T09:52:03.906Z,21.89
2018-11-02T09:54:39.238Z,21.96
2018-11-02T09:57:14.298Z,21.94
2018-11-02T09:59:49.306Z,22.11
2018-11-02T10:02:24.439Z,22.40
2018-11-02T10:04:59.298Z,22.32
2018-11-02T10:07:34.593Z,22.43
2018-11-02T10:10:10.392Z,22.23
2018-11-02T10:12:45.644Z,22.54
2018-11-02T10:15:20.502Z,22.74
2018-11-02T10:17:55.510Z,23.09
2018-11-02T10:20:30.565Z,23.08
2018-11-02T10:23:05.722Z,23.31
2018-11-02T10:25:40.778Z,23.57
2018-11-02T10:28:15.689Z,23.63
2018-11-02T10:30:51.766Z,23.83
2018-11-02T10:33:26.639Z,23.92
2018-11-02T10:36:01.976Z,23.91
2018-11-02T10:38:36.987Z,23.69
2018-11-02T10:41:12.876Z,23.44
2018-11-02T10:43:47.927Z,23.64
2018-11-02T10:46:23.048Z,23.63
2018-11-02T10:48:57.987Z,23.66
2018-11-02T10:51:32.934Z,23.63
2018-11-02T10:54:07.740Z,23.55
2018-11-02T10:56:43.077Z,23.67
2018-11-02T10:59:18.214Z,23.73
2018-11-02T11:01:58.538Z,23.57
2018-11-02T11:04:33.431Z,23.87
2018-11-02T11:07:08.292Z,24.08
2018-11-02T11:09:43.199Z,24.44
2018-11-02T11:12:18.416Z,24.28
2018-11-02T11:14:53.391Z,24.22
2018-11-02T11:17:28.404Z,24.46
2018-11-02T11:20:03.443Z,24.74
2018-11-02T11:22:38.460Z,25.17
2018-11-02T11:25:14.762Z,25.22
2018-11-02T11:27:49.684Z,25.22
2018-11-02T11:30:24.682Z,25.22
2018-11-02T11:32:59.767Z,25.49
2018-11-02T11:35:34.822Z,25.31
2018-11-02T11:38:09.749Z,25.31
2018-11-02T11:40:44.757Z,25.21
2018-11-02T11:43:19.715Z,25.23
2018-11-02T11:45:54.692Z,25.00
2018-11-02T11:48:29.832Z,25.16
2018-11-02T11:51:05.058Z,25.27
2018-11-02T11:53:40.368Z,25.64
2018-11-02T11:56:15.380Z,25.63
2018-11-02T11:58:50.453Z,25.16
2018-11-02T12:01:25.619Z,25.24
2018-11-02T12:04:00.708Z,25.05
2018-11-02T12:06:35.705Z,25.13
2018-11-02T12:09:11.091Z,25.22
2018-11-02T12:11:46.244Z,25.34
2018-11-02T12:14:21.820Z,25.42
2018-11-02T12:17:02.885Z,25.46
2018-11-02T12:19:37.996Z,25.51
2018-11-02T12:22:13.046Z,25.30
2018-11-02T12:24:48.015Z,25.40
2018-11-02T12:27:23.065Z,25.40
2018-11-02T12:29:57.898Z,25.81
2018-11-02T12:32:32.827Z,26.02
2018-11-02T12:35:09.110Z,26.00
2018-11-02T12:37:45.191Z,25.80
2018-11-02T12:40:21.294Z,26.08
2018-11-02T12:42:56.688Z,26.13
2018-11-02T12:45:26.546Z,26.08
2018-11-02T12:47:56.842Z,26.17
2018-11-02T12:50:28.317Z,25.99
2018-11-02T12:52:59.492Z,26.29
2018-11-02T12:55:29.393Z,26.97
2018-11-02T12:58:00.370Z,27.29
2018-11-02T13:00:31.378Z,27.57
2018-11-02T13:03:02.342Z,27.68
2018-11-02T13:05:36.389Z,28.16
2018-11-02T13:08:07.398Z,27.77
2018-11-02T13:10:38.396Z,27.66
2018-11-02T13:13:09.370Z,27.73
2018-11-02T13:15:40.644Z,28.11
2018-11-02T13:18:11.898Z,27.90
2018-11-02T13:20:43.119Z,27.64
2018-11-02T13:23:14.097Z,27.56
2018-11-02T13:25:45.184Z,27.57
2018-11-02T13:28:16.326Z,26.83
2018-11-02T13:30:47.635Z,27.14
2018-11-02T13:33:18.778Z,27.36
2018-11-02T13:35:49.898Z,27.16
2018-11-02T13:38:21.049Z,27.60
2018-11-02T13:40:52.083Z,27.58
2018-11-02T13:43:23.274Z,27.39
2018-11-02T13:45:54.500Z,26.95
2018-11-02T13:48:24.509Z,26.58
2018-11-02T13:50:58.182Z,26.13
2018-11-02T13:53:28.020Z,25.91
2018-11-02T13:55:58.043Z,25.43
2018-11-02T13:58:27.901Z,25.18
2018-11-02T14:00:57.758Z,24.97
2018-11-02T14:03:27.533Z,24.61
2018-11-02T14:05:57.504Z,24.10
2018-11-02T14:08:27.323Z,24.08
2018-11-02T14:10:57.137Z,24.05
2018-11-02T14:13:27.046Z,23.88
2018-11-02T14:15:56.883Z,23.79
2018-11-02T14:18:26.815Z,23.62
2018-11-02T14:20:56.789Z,23.57
2018-11-02T14:23:26.566Z,23.24
2018-11-02T14:25:56.416Z,23.09
2018-11-02T14:28:26.282Z,22.93
2018-11-02T14:30:56.077Z,22.94
2018-11-02T14:33:25.880Z,22.92
2018-11-02T14:35:55.812Z,22.56
2018-11-02T14:38:25.646Z,22.47
2018-11-02T14:40:55.544Z,22.23
2018-11-02T14:43:25.558Z,22.17
2018-11-02T14:45:55.384Z,22.00
2018-11-02T14:48:25.198Z,21.95
2018-11-02T14:50:55.064Z,21.84
2018-11-02T14:53:24.868Z,21.62
2018-11-02T14:55:55.231Z,21.79
2018-11-02T14:58:25.170Z,21.61
2018-11-02T15:00:54.975Z,21.50
2018-11-02T15:03:24.820Z,21.33
2018-11-02T15:05:54.812Z,21.16
2018-11-02T15:08:24.743Z,21.09
2018-11-02T15:10:54.566Z,20.74
2018-11-02T15:13:24.412Z,20.61
2018-11-02T15:15:54.231Z,20.39
2018-11-02T15:18:24.070Z,20.23
2018-11-02T15:20:53.985Z,20.13
2018-11-02T15:23:23.823Z,19.91
2018-11-02T15:25:54.277Z,19.81
2018-11-02T15:28:24.198Z,19.67
2018-11-02T15:30:54.030Z,19.64
2018-11-02T15:33:23.861Z,19.48
2018-11-02T15:35:53.823Z,19.46
2018-11-02T15:38:23.617Z,19.42
2018-11-02T15:40:53.441Z,19.28
2018-11-02T15:43:23.373Z,19.25
2018-11-02T15:45:53.462Z,19.08
2018-11-02T15:48:23.271Z,19.06
2018-11-02T15:50:53.202Z,19.22
2018-11-02T15:53:23.688Z,19.10
2018-11-02T15:55:53.710Z,18.87
2018-11-02T15:58:23.593Z,19.11
2018-11-02T16:00:53.430Z,18.97
2018-11-02T16:03:23.509Z,18.77
2018-11-02T16:05:53.582Z,18.55
2018-11-02T16:08:23.682Z,18.64
2018-11-02T16:10:53.636Z,18.44
2018-11-02T16:13:23.751Z,18.28
2018-11-02T16:15:53.554Z,18.16
2018-11-02T16:18:23.544Z,18.02
2018-11-02T16:20:53.385Z,17.92
2018-11-02T16:23:23.208Z,17.80
2018-11-02T16:25:53.105Z,17.51
2018-11-02T16:28:23.001Z,17.37
2018-11-02T16:30:52.857Z,17.33
2018-11-02T16:33:22.674Z,17.15
2018-11-02T16:35:52.529Z,17.10
2018-11-02T16:38:27.606Z,17.10
2018-11-02T16:40:57.606Z,16.83
2018-11-02T16:43:27.742Z,16.78
2018-11-02T16:45:57.924Z,16.69
2018-11-02T16:48:27.807Z,16.77
2018-11-02T16:50:57.625Z,16.55
2018-11-02T16:53:27.659Z,16.39
2018-11-02T16:55:57.508Z,16.31
2018-11-02T16:58:27.441Z,16.37
2018-11-02T17:00:57.230Z,16.38
2018-11-02T17:03:28.006Z,16.44
2018-11-02T17:05:57.903Z,16.32
2018-11-02T17:08:27.669Z,16.32
2018-11-02T17:10:57.510Z,16.29
2018-11-02T17:13:27.337Z,16.21
2018-11-02T17:15:57.174Z,16.12
2018-11-02T17:18:27.165Z,15.82
2018-11-02T17:20:57.066Z,15.96
2018-11-02T17:23:26.878Z,15.78
2018-11-02T17:25:56.829Z,15.75
2018-11-02T17:28:26.676Z,15.64
2018-11-02T17:30:56.554Z,15.51
2018-11-02T17:33:26.487Z,15.58
2018-11-02T17:35:56.575Z,15.49
2018-11-02T17:38:26.411Z,15.11
2018-11-02T17:40:56.283Z,15.07
2018-11-02T17:43:26.120Z,14.79
2018-11-02T17:45:55.953Z,14.78
2018-11-02T17:48:25.904Z,14.59
2018-11-02T17:50:55.758Z,14.68
2018-11-02T17:53:25.660Z,14.63
2018-11-02T17:55:55.680Z,14.36
2018-11-02T17:58:25.524Z,14.54
2018-11-02T18:00:55.875Z,14.36
2018-11-02T18:03:25.831Z,14.29
2018-11-02T18:05:55.794Z,14.25
2018-11-02T18:08:25.880Z,14.28
2018-11-02T18:10:55.967Z,13.98
2018-11-02T18:13:25.770Z,14.08
2018-11-02T18:15:55.955Z,13.84
2018-11-02T18:18:26.373Z,13.73
2018-11-02T18:20:56.396Z,13.49
2018-11-02T18:23:27.243Z,13.49
2018-11-02T18:25:57.073Z,13.54
2018-11-02T18:28:26.897Z,13.30
2018-11-02T18:30:56.825Z,13.25
2018-11-02T18:33:26.686Z,13.08
2018-11-02T18:35:56.614Z,13.06
2018-11-02T18:38:26.478Z,13.04
2018-11-02T18:40:56.481Z,13.04
2018-11-02T18:43:26.287Z,13.15
2018-11-02T18:45:56.171Z,13.18
2018-11-02T18:48:26.109Z,13.15
2018-11-02T18:50:56.493Z,13.18
2018-11-02T18:53:26.471Z,13.01
2018-11-02T18:55:57.057Z,13.13
2018-11-02T18:58:26.853Z,13.08
2018-11-02T19:00:56.903Z,13.00
2018-11-02T19:03:26.707Z,12.60
2018-11-02T19:05:56.511Z,12.25
2018-11-02T19:08:26.385Z,12.24
2018-11-02T19:10:56.194Z,11.93
2018-11-02T19:13:26.207Z,11.82
2018-11-02T19:15:56.312Z,11.76
2018-11-02T19:18:26.240Z,11.88
2018-11-02T19:20:56.079Z,11.88
2018-11-02T19:23:26.061Z,11.61
2018-11-02T19:25:56.192Z,11.63
2018-11-02T19:28:26.026Z,11.52
2018-11-02T19:30:55.907Z,11.42
2018-11-02T19:33:25.730Z,11.41
2018-11-02T19:35:55.560Z,11.40
2018-11-02T19:38:25.418Z,11.31
2018-11-02T19:40:55.541Z,11.29
2018-11-02T19:43:25.378Z,11.18
2018-11-02T19:45:55.291Z,11.20
2018-11-02T19:48:25.094Z,11.20
2018-11-02T19:50:55.740Z,11.30
2018-11-02T19:53:25.988Z,11.29
2018-11-02T19:55:56.263Z,11.24
2018-11-02T19:58:26.547Z,10.89
2018-11-02T20:00:56.849Z,10.75
2018-11-02T20:03:26.988Z,10.47
2018-11-02T20:05:56.976Z,10.12
2018-11-02T20:08:27.092Z,10.18
2018-11-02T20:10:57.246Z,10.38
2018-11-02T20:13:27.571Z,10.64
2018-11-02T20:15:58.048Z,10.75
2018-11-02T20:18:27.872Z,10.81
2018-11-02T20:20:57.796Z,10.72
2018-11-02T20:23:27.806Z,10.67
2018-11-02T20:25:57.726Z,10.80
2018-11-02T20:28:27.696Z,11.01
2018-11-02T20:30:57.591Z,11.21
2018-11-02T20:33:27.581Z,11.17
2018-11-02T20:35:57.457Z,11.05
2018-11-02T20:38:27.349Z,11.00
2018-11-02T20:40:57.309Z,10.97
2018-11-02T20:43:27.149Z,10.94
2018-11-02T20:45:57.054Z,10.82
2018-11-02T20:48:26.905Z,10.70
2018-11-02T20:50:56.886Z,10.48
2018-11-02T20:53:26.735Z,10.31
2018-11-02T20:55:56.554Z,10.36
2018-11-02T20:58:26.464Z,10.38
2018-11-02T21:01:01.666Z,10.53
2018-11-02T21:03:36.942Z,10.59
2018-11-02T21:06:11.798Z,10.65
2018-11-02T21:08:46.996Z,10.61
2018-11-02T21:11:22.109Z,10.40
2018-11-02T21:13:57.349Z,10.44
2018-11-02T21:16:32.634Z,10.25
2018-11-02T21:19:08.122Z,10.18
2018-11-02T21:21:43.086Z,10.18
2018-11-02T21:24:18.233Z,9.88
2018-11-02T21:26:53.442Z,9.82
2018-11-02T21:29:28.425Z,9.91
2018-11-02T21:32:03.401Z,9.70
2018-11-02T21:34:38.248Z,9.65
2018-11-02T21:37:13.367Z,9.41
2018-11-02T21:39:48.296Z,9.26
2018-11-02T21:42:23.267Z,9.18
2018-11-02T21:44:58.053Z,9.16
2018-11-02T21:47:33.119Z,8.91
2018-11-02T21:50:08.549Z,8.83
2018-11-02T21:52:43.645Z,9.06
2018-11-02T21:55:18.958Z,9.21
2018-11-02T21:57:53.977Z,9.18
2018-11-02T22:00:29.001Z,9.29
2018-11-02T22:03:04.197Z,9.45
2018-11-02T22:05:39.163Z,9.24
2018-11-02T22:08:14.358Z,9.00
2018-11-02T22:10:49.390Z,8.94
2018-11-02T22:13:24.340Z,8.98
2018-11-02T22:15:59.798Z,8.97
2018-11-02T22:18:35.048Z,8.99
2018-11-02T22:21:10.394Z,8.80
2018-11-02T22:23:45.532Z,8.88
2018-11-02T22:26:20.615Z,8.92
2018-11-02T22:28:55.746Z,8.53
2018-11-02T22:31:31.056Z,8.50
2018-11-02T22:34:06.175Z,8.41
2018-11-02T22:36:41.384Z,8.44
2018-11-02T22:39:16.419Z,8.24
2018-11-02T22:41:51.526Z,8.52
2018-11-02T22:44:26.556Z,8.34
2018-11-02T22:47:01.616Z,8.66
2018-11-02T22:49:36.652Z,8.78
2018-11-02T22:52:11.725Z,8.73
2018-11-02T22:54:46.724Z,8.47
2018-11-02T22:57:25.377Z,8.02
2018-11-02T23:00:00.552Z,7.80
2018-11-02T23:02:35.533Z,7.84
2018-11-02T23:05:10.503Z,7.80
2018-11-02T23:07:45.662Z,7.70
2018-11-02T23:10:20.606Z,7.66
2018-11-02T23:12:55.620Z,7.93
2018-11-02T23:15:30.637Z,8.20
2018-11-02T23:18:05.563Z,8.35
2018-11-02T23:20:40.660Z,8.40
2018-11-02T23:23:15.772Z,8.26
2018-11-02T23:25:50.630Z,8.09
2018-11-02T23:28:25.731Z,8.19
2018-11-02T23:31:00.721Z,8.20
2018-11-02T23:33:35.778Z,8.17
2018-11-02T23:36:10.718Z,8.08
2018-11-02T23:38:45.625Z,8.23
2018-11-02T23:41:20.801Z,8.18
2018-11-02T23:43:56.261Z,7.99
2018-11-02T23:46:33.921Z,7.74
2018-11-02T23:49:08.690Z,7.43
2018-11-02T23:51:46.069Z,7.02
2018-11-02T23:54:21.053Z,6.79
2018-11-02T23:56:56.253Z,7.08
2018-11-02T23:59:31.063Z,7.39
